createdAt,value
2019-02-04T00:00:15.335Z,23
2019-02-04T00:01:18.230Z,22.9
2019-02-04T00:02:20.382Z,23
2019-02-04T00:03:22.525Z,22.9
2019-02-04T00:04:24.424Z,23
2019-02-04T00:05:26.975Z,23
2019-02-04T00:06:29.415Z,22.9
2019-02-04T00:07:31.844Z,23
2019-02-04T00:08:34.271Z,22.9
2019-02-04T00:09:36.705Z,22.9
2019-02-04T00:10:39.126Z,22.9
2019-02-04T00:11:42.169Z,22.9
2019-02-04T00:12:45.202Z,22.9
2019-02-04T00:13:47.816Z,22.9
2019-02-04T00:14:50.247Z,22.9
2019-02-04T00:15:52.703Z,22.9
2019-02-04T00:16:55.135Z,22.9
2019-02-04T00:17:57.314Z,22.9
2019-02-04T00:18:59.739Z,22.9
2019-02-04T00:20:01.912Z,22.9
2019-02-04T00:21:04.185Z,22.9
2019-02-04T00:22:06.605Z,22.9
2019-02-04T00:23:09.208Z,22.9
2019-02-04T00:24:12.525Z,22.9
2019-02-04T00:25:14.679Z,22.9
2019-02-04T00:26:16.831Z,22.9
2019-02-04T00:27:19.262Z,23
2019-02-04T00:28:21.685Z,23
2019-02-04T00:29:23.806Z,23
2019-02-04T00:30:25.947Z,23
2019-02-04T00:31:28.078Z,23
2019-02-04T00:32:29.964Z,23
2019-02-04T00:33:31.841Z,23
2019-02-04T00:34:34.988Z,23.1
2019-02-04T00:35:38.108Z,23.1
2019-02-04T00:36:40.531Z,23.1
2019-02-04T00:37:42.426Z,23.1
2019-02-04T00:38:44.657Z,23.2
2019-02-04T00:39:47.090Z,23.2
2019-02-04T00:40:49.523Z,23.2
2019-02-04T00:41:51.957Z,23.2
2019-02-04T00:42:54.105Z,23.2
2019-02-04T00:43:56.255Z,23.2
2019-02-04T00:44:58.372Z,23.1
2019-02-04T00:46:01.197Z,23.1
2019-02-04T00:47:04.465Z,23.1
2019-02-04T00:48:06.893Z,23.1
2019-02-04T00:49:09.061Z,23.1
2019-02-04T00:50:11.502Z,23.1
2019-02-04T00:51:13.935Z,23.1
2019-02-04T00:52:16.359Z,23.1
2019-02-04T00:53:18.796Z,23.2
2019-02-04T00:54:20.911Z,23.2
2019-02-04T00:55:23.178Z,23.2
2019-02-04T00:56:26.019Z,23.2
2019-02-04T00:57:28.565Z,23.2
2019-02-04T00:58:31.455Z,23.2
2019-02-04T00:59:33.900Z,23.3
2019-02-04T01:00:36.325Z,23.3
2019-02-04T01:01:38.471Z,23.3
2019-02-04T01:02:40.642Z,23.4
2019-02-04T01:03:43.075Z,23.4
2019-02-04T01:04:45.505Z,23.4
2019-02-04T01:05:47.931Z,23.4
2019-02-04T01:06:50.363Z,23.4
2019-02-04T01:07:52.809Z,23.4
2019-02-04T01:08:55.593Z,23.3
2019-02-04T01:09:58.261Z,23.3
2019-02-04T01:11:00.774Z,23.3
2019-02-04T01:12:03.326Z,23.3
2019-02-04T01:13:05.757Z,23.3
2019-02-04T01:14:07.896Z,23.3
2019-02-04T01:15:10.064Z,23.3
2019-02-04T01:16:12.229Z,23.3
2019-02-04T01:17:14.654Z,23.3
2019-02-04T01:18:16.823Z,23.3
2019-02-04T01:19:19.471Z,23.3
2019-02-04T01:20:22.151Z,23.3
2019-02-04T01:21:25.280Z,23.3
2019-02-04T01:22:27.707Z,23.4
2019-02-04T01:23:29.865Z,23.4
2019-02-04T01:24:32.299Z,23.4
2019-02-04T01:25:34.441Z,23.4
2019-02-04T01:26:36.873Z,23.4
2019-02-04T01:27:39.297Z,23.5
2019-02-04T01:28:41.457Z,23.5
2019-02-04T01:29:43.715Z,23.5
2019-02-04T01:30:45.937Z,23.5
2019-02-04T01:31:48.215Z,23.5
2019-02-04T01:32:51.403Z,23.6
2019-02-04T01:33:53.843Z,23.6
2019-02-04T01:34:56.267Z,23.6
2019-02-04T01:35:58.429Z,23.6
2019-02-04T01:37:00.884Z,23.7
2019-02-04T01:38:03.037Z,23.7
2019-02-04T01:39:05.469Z,23.7
2019-02-04T01:40:07.891Z,23.7
2019-02-04T01:41:10.075Z,23.7
2019-02-04T01:42:12.799Z,23.8
2019-02-04T01:43:15.587Z,23.8
2019-02-04T01:44:18.914Z,23.8
2019-02-04T01:45:21.337Z,23.8
2019-02-04T01:46:23.044Z,23.8
2019-02-04T01:47:25.197Z,23.8
2019-02-04T01:48:27.355Z,23.8
2019-02-04T01:49:29.786Z,23.8
2019-02-04T01:50:31.937Z,23.8
2019-02-04T01:51:34.123Z,23.8
2019-02-04T01:52:36.549Z,23.8
2019-02-04T01:53:39.356Z,23.8
2019-02-04T01:54:42.115Z,23.8
2019-02-04T01:55:45.514Z,23.8
2019-02-04T01:56:47.947Z,23.8
2019-02-04T01:57:50.371Z,23.9
2019-02-04T01:58:52.804Z,23.9
2019-02-04T01:59:54.982Z,23.9
2019-02-04T02:00:57.116Z,23.9
2019-02-04T02:01:59.277Z,23.9
2019-02-04T02:03:01.714Z,23.9
2019-02-04T02:04:04.143Z,23.9
2019-02-04T02:05:06.849Z,23.9
2019-02-04T02:06:09.810Z,23.9
2019-02-04T02:07:13.025Z,23.9
2019-02-04T02:08:15.175Z,23.9
2019-02-04T02:09:17.334Z,23.9
2019-02-04T02:10:19.480Z,24
2019-02-04T02:11:21.633Z,24
2019-02-04T02:12:23.785Z,24
2019-02-04T02:13:25.930Z,24
2019-02-04T02:14:28.075Z,24
2019-02-04T02:15:30.497Z,24
2019-02-04T02:16:32.376Z,24
2019-02-04T02:17:35.505Z,24
2019-02-04T02:18:38.795Z,24
2019-02-04T02:19:40.963Z,24
2019-02-04T02:20:43.395Z,24
2019-02-04T02:21:44.725Z,24
2019-02-04T02:22:47.163Z,24
2019-02-04T02:23:49.341Z,24
2019-02-04T02:24:51.782Z,24
2019-02-04T02:25:54.218Z,24
2019-02-04T02:26:56.378Z,24
2019-02-04T02:27:58.795Z,24
2019-02-04T02:29:01.609Z,24
2019-02-04T02:30:04.704Z,24
2019-02-04T02:31:06.869Z,24
2019-02-04T02:32:09.291Z,24
2019-02-04T02:33:11.717Z,24
2019-02-04T02:34:14.152Z,24
2019-02-04T02:35:16.631Z,24
2019-02-04T02:36:18.505Z,24
2019-02-04T02:37:20.685Z,24
2019-02-04T02:38:22.857Z,24
2019-02-04T02:39:25.576Z,24
2019-02-04T02:40:28.444Z,24
2019-02-04T02:41:31.494Z,24
2019-02-04T02:42:33.650Z,24
2019-02-04T02:43:36.082Z,24
2019-02-04T02:44:38.517Z,24
2019-02-04T02:45:40.939Z,24
2019-02-04T02:46:43.373Z,24
2019-02-04T02:47:45.523Z,24
2019-02-04T02:48:47.412Z,24
2019-02-04T02:49:49.873Z,24
2019-02-04T02:50:52.656Z,24
2019-02-04T02:51:55.548Z,24
2019-02-04T02:52:57.865Z,24
2019-02-04T02:54:00.285Z,24
2019-02-04T02:55:02.722Z,24
2019-02-04T02:56:04.895Z,24
2019-02-04T02:57:07.319Z,24
2019-02-04T02:58:09.734Z,24
2019-02-04T02:59:11.900Z,24.1
2019-02-04T03:00:14.165Z,24.1
2019-02-04T03:01:16.591Z,24.1
2019-02-04T03:02:19.457Z,24.1
2019-02-04T03:03:22.481Z,24.1
2019-02-04T03:04:24.999Z,24.1
2019-02-04T03:05:27.442Z,24
2019-02-04T03:06:29.613Z,24
2019-02-04T03:07:31.224Z,24
2019-02-04T03:08:33.100Z,24
2019-02-04T03:09:35.522Z,24
2019-02-04T03:10:37.998Z,24
2019-02-04T03:11:40.470Z,24
2019-02-04T03:12:42.940Z,24
2019-02-04T03:13:45.538Z,24
2019-02-04T03:14:48.785Z,24
2019-02-04T03:15:50.932Z,24
2019-02-04T03:16:53.359Z,24
2019-02-04T03:17:55.510Z,24
2019-02-04T03:18:57.652Z,24
2019-02-04T03:20:00.092Z,24
2019-02-04T03:21:02.600Z,24
2019-02-04T03:22:05.024Z,24
2019-02-04T03:23:07.440Z,24
2019-02-04T03:24:09.584Z,24
2019-02-04T03:25:12.424Z,24
2019-02-04T03:26:15.217Z,24.1
2019-02-04T03:27:17.418Z,24.1
2019-02-04T03:28:19.574Z,24.1
2019-02-04T03:29:21.739Z,24.1
2019-02-04T03:30:24.163Z,24.1
2019-02-04T03:31:26.417Z,24.1
2019-02-04T03:32:28.612Z,24.1
2019-02-04T03:33:31.315Z,24.1
2019-02-04T03:34:33.777Z,24.1
2019-02-04T03:35:36.213Z,24.1
2019-02-04T03:36:39.013Z,24.1
2019-02-04T03:37:42.157Z,24.1
2019-02-04T03:38:44.020Z,24
2019-02-04T03:39:46.451Z,24
2019-02-04T03:40:48.963Z,24
2019-02-04T03:41:51.389Z,24
2019-02-04T03:42:53.534Z,24
2019-02-04T03:45:01.098Z,23.9
2019-02-04T03:46:03.559Z,23.9
2019-02-04T03:47:05.984Z,23.9
2019-02-04T03:48:10.659Z,23.9
2019-02-04T03:49:13.657Z,23.9
2019-02-04T03:50:16.978Z,23.9
2019-02-04T03:51:19.136Z,23.9
2019-02-04T03:52:21.570Z,23.9
2019-02-04T03:53:24.102Z,23.9
2019-02-04T03:54:26.509Z,23.9
2019-02-04T03:55:28.395Z,23.9
2019-02-04T03:56:30.827Z,24
2019-02-04T03:57:33.250Z,24
2019-02-04T03:58:35.141Z,24
2019-02-04T03:59:37.570Z,24
2019-02-04T04:00:40.434Z,24
2019-02-04T04:01:43.526Z,24
2019-02-04T04:02:45.945Z,24
2019-02-04T04:03:48.363Z,24
2019-02-04T04:04:50.804Z,24
2019-02-04T04:05:52.960Z,23.9
2019-02-04T04:06:55.378Z,23.9
2019-02-04T04:07:57.243Z,23.9
2019-02-04T04:08:59.674Z,23.8
2019-02-04T04:10:01.823Z,23.8
2019-02-04T04:11:03.680Z,23.8
2019-02-04T04:12:06.800Z,23.7
2019-02-04T04:13:09.998Z,23.7
2019-02-04T04:14:12.436Z,23.7
2019-02-04T04:15:14.670Z,23.7
2019-02-04T04:16:17.128Z,23.6
2019-02-04T04:17:19.562Z,23.6
2019-02-04T04:18:21.867Z,23.6
2019-02-04T04:19:24.305Z,23.6
2019-02-04T04:20:26.199Z,23.5
2019-02-04T04:21:28.086Z,23.5
2019-02-04T04:22:30.626Z,23.5
2019-02-04T04:23:33.188Z,23.5
2019-02-04T04:24:36.315Z,23.5
2019-02-04T04:25:38.204Z,23.5
2019-02-04T04:26:40.646Z,23.5
2019-02-04T04:27:42.857Z,23.4
2019-02-04T04:28:45.014Z,23.4
2019-02-04T04:29:47.192Z,23.4
2019-02-04T04:30:49.344Z,23.4
2019-02-04T04:31:51.767Z,23.4
2019-02-04T04:32:54.187Z,23.4
2019-02-04T04:33:56.815Z,23.4
2019-02-04T04:34:59.573Z,23.3
2019-02-04T04:36:02.734Z,23.3
2019-02-04T04:37:05.162Z,23.3
2019-02-04T04:38:07.303Z,23.3
2019-02-04T04:39:09.738Z,23.3
2019-02-04T04:40:11.609Z,23.3
2019-02-04T04:41:13.755Z,23.3
2019-02-04T04:42:16.185Z,23.3
2019-02-04T04:43:18.344Z,23.3
2019-02-04T04:44:20.514Z,23.3
2019-02-04T04:45:23.550Z,23.3
2019-02-04T04:46:26.780Z,23.3
2019-02-04T04:47:30.155Z,23.3
2019-02-04T04:48:32.332Z,23.3
2019-02-04T04:49:34.492Z,23.3
2019-02-04T04:50:36.915Z,23.2
2019-02-04T04:51:39.340Z,23.3
2019-02-04T04:52:41.762Z,23.2
2019-02-04T04:53:44.188Z,23.2
2019-02-04T04:54:46.613Z,23.2
2019-02-04T04:55:48.777Z,23.2
2019-02-04T04:56:51.654Z,23.2
2019-02-04T04:57:54.279Z,23.2
2019-02-04T04:58:57.125Z,23.2
2019-02-04T04:59:59.279Z,23.2
2019-02-04T05:01:01.666Z,23.2
2019-02-04T05:02:03.824Z,23.2
2019-02-04T05:03:05.415Z,23.2
2019-02-04T05:04:08.458Z,23.2
2019-02-04T05:05:10.324Z,23.2
2019-02-04T05:06:12.746Z,23.2
2019-02-04T05:07:15.274Z,23.2
2019-02-04T05:08:18.149Z,23.2
2019-02-04T05:09:21.007Z,23.2
2019-02-04T05:10:23.877Z,23.1
2019-02-04T05:11:26.308Z,23.1
2019-02-04T05:12:28.748Z,23.1
2019-02-04T05:13:31.172Z,23.1
2019-02-04T05:14:33.727Z,23.1
2019-02-04T05:15:36.144Z,23.1
2019-02-04T05:16:38.293Z,23.1
2019-02-04T05:17:40.719Z,23.1
2019-02-04T05:18:43.141Z,23.1
2019-02-04T05:19:46.145Z,23.1
2019-02-04T05:20:48.573Z,23.1
2019-02-04T05:21:55.295Z,23.1
2019-02-04T05:22:57.916Z,23.1
2019-02-04T05:24:00.334Z,23.1
2019-02-04T05:25:02.494Z,23.1
2019-02-04T05:26:04.938Z,23.1
2019-02-04T05:27:06.810Z,23.1
2019-02-04T05:28:08.938Z,23.1
2019-02-04T05:29:11.372Z,23.1
2019-02-04T05:30:13.816Z,23.1
2019-02-04T05:31:16.254Z,23.1
2019-02-04T05:32:18.850Z,23.1
2019-02-04T05:33:21.890Z,23.1
2019-02-04T05:34:24.527Z,23.1
2019-02-04T05:35:26.948Z,23.1
2019-02-04T05:36:29.104Z,23.1
2019-02-04T05:37:31.538Z,23.1
2019-02-04T05:38:33.661Z,23.1
2019-02-04T05:39:35.825Z,23.1
2019-02-04T05:40:38.256Z,23.1
2019-02-04T05:42:46.204Z,23.1
2019-02-04T05:43:48.764Z,23.1
2019-02-04T05:44:51.814Z,23.1
2019-02-04T05:45:55.084Z,23.1
2019-02-04T05:46:57.514Z,23.1
2019-02-04T05:47:59.946Z,23.1
2019-02-04T05:49:02.373Z,23.1
2019-02-04T05:50:04.814Z,23.1
2019-02-04T05:51:07.258Z,23.1
2019-02-04T05:52:09.691Z,23.1
2019-02-04T05:53:12.121Z,23.1
2019-02-04T05:54:14.553Z,23.1
2019-02-04T05:55:16.713Z,23.1
2019-02-04T05:56:19.474Z,23
2019-02-04T05:57:22.474Z,23
2019-02-04T05:58:25.005Z,23
2019-02-04T05:59:27.433Z,23
2019-02-04T06:00:29.863Z,23
2019-02-04T06:01:32.130Z,23
2019-02-04T06:02:34.564Z,23
2019-02-04T06:03:36.984Z,23
2019-02-04T06:04:39.425Z,23
2019-02-04T06:05:41.842Z,23
2019-02-04T06:06:44.513Z,23
2019-02-04T06:07:47.264Z,23
2019-02-04T06:08:50.323Z,23
2019-02-04T06:09:52.569Z,23
2019-02-04T06:10:54.990Z,23
2019-02-04T06:11:57.429Z,23
2019-02-04T06:12:59.344Z,23
2019-02-04T06:14:01.765Z,23
2019-02-04T06:15:04.182Z,23
2019-02-04T06:16:06.627Z,23
2019-02-04T06:17:08.786Z,23
2019-02-04T06:18:11.124Z,23
2019-02-04T06:19:13.784Z,23
2019-02-04T06:20:17.037Z,23
2019-02-04T06:21:19.455Z,23
2019-02-04T06:22:21.876Z,23
2019-02-04T06:23:24.307Z,23
2019-02-04T06:24:26.181Z,23
2019-02-04T06:25:28.345Z,23
2019-02-04T06:26:30.495Z,23
2019-02-04T06:27:32.647Z,23
2019-02-04T06:28:34.796Z,23
2019-02-04T06:29:37.106Z,23
2019-02-04T06:30:38.963Z,23
2019-02-04T06:31:41.466Z,23
2019-02-04T06:32:43.902Z,23
2019-02-04T06:33:46.324Z,23
2019-02-04T06:34:48.462Z,23
2019-02-04T06:35:50.318Z,23
2019-02-04T06:36:52.745Z,23
2019-02-04T06:37:54.903Z,23
2019-02-04T06:38:57.071Z,23
2019-02-04T06:39:59.505Z,23
2019-02-04T06:41:02.336Z,23
2019-02-04T06:42:05.550Z,23
2019-02-04T06:43:07.975Z,23
2019-02-04T06:44:10.126Z,23
2019-02-04T06:45:12.264Z,23
2019-02-04T06:46:14.440Z,23
2019-02-04T06:47:16.742Z,23
2019-02-04T06:48:18.970Z,23
2019-02-04T06:49:21.177Z,23
2019-02-04T06:50:23.363Z,23
2019-02-04T06:51:25.525Z,23
2019-02-04T06:52:28.091Z,23
2019-02-04T06:53:31.474Z,23
2019-02-04T06:54:33.915Z,23
2019-02-04T06:55:36.325Z,23
2019-02-04T06:56:38.759Z,23
2019-02-04T06:57:41.025Z,23
2019-02-04T06:58:43.469Z,23
2019-02-04T06:59:45.975Z,23
2019-02-04T07:00:48.415Z,23
2019-02-04T07:01:50.835Z,23
2019-02-04T07:02:53.517Z,23
2019-02-04T07:03:56.362Z,23
2019-02-04T07:04:59.401Z,23
2019-02-04T07:06:01.834Z,23
2019-02-04T07:07:03.753Z,23
2019-02-04T07:08:05.924Z,23
2019-02-04T07:09:07.913Z,23
2019-02-04T07:10:10.353Z,23
2019-02-04T07:11:12.553Z,23
2019-02-04T07:12:14.699Z,22.9
2019-02-04T07:13:17.158Z,23
2019-02-04T07:14:20.197Z,22.9
2019-02-04T07:15:23.414Z,22.9
2019-02-04T07:16:25.006Z,22.9
2019-02-04T07:17:27.443Z,22.9
2019-02-04T07:18:29.896Z,22.9
2019-02-04T07:19:32.417Z,22.9
2019-02-04T07:20:34.567Z,22.9
2019-02-04T07:21:36.712Z,23
2019-02-04T07:22:38.861Z,22.9
2019-02-04T07:23:40.767Z,22.9
2019-02-04T07:24:44.166Z,22.9
2019-02-04T07:25:47.227Z,22.9
2019-02-04T07:26:50.462Z,22.9
2019-02-04T07:27:52.338Z,22.9
2019-02-04T07:28:54.503Z,22.9
2019-02-04T07:29:56.993Z,22.9
2019-02-04T07:30:59.418Z,22.9
2019-02-04T07:32:01.848Z,22.9
2019-02-04T07:33:04.009Z,22.9
2019-02-04T07:34:06.171Z,22.9
2019-02-04T07:35:08.609Z,22.9
2019-02-04T07:36:11.226Z,22.9
2019-02-04T07:37:13.946Z,22.9
2019-02-04T07:38:16.329Z,22.9
2019-02-04T07:39:17.920Z,22.9
2019-02-04T07:40:20.339Z,22.9
2019-02-04T07:41:22.767Z,22.9
2019-02-04T07:42:24.906Z,22.9
2019-02-04T07:43:27.349Z,22.9
2019-02-04T07:44:29.764Z,22.9
2019-02-04T07:45:31.927Z,22.9
2019-02-04T07:46:34.356Z,22.9
2019-02-04T07:47:37.387Z,22.9
2019-02-04T07:48:40.475Z,22.9
2019-02-04T07:49:42.360Z,22.9
2019-02-04T07:50:44.525Z,22.9
2019-02-04T07:51:46.663Z,22.9
2019-02-04T07:52:53.565Z,22.9
2019-02-04T07:53:55.711Z,22.9
2019-02-04T07:54:57.868Z,22.9
2019-02-04T07:56:00.295Z,22.9
2019-02-04T07:57:02.588Z,22.9
2019-02-04T07:58:04.463Z,22.9
2019-02-04T07:59:07.549Z,22.9
2019-02-04T08:00:10.461Z,22.9
2019-02-04T08:01:12.319Z,22.8
2019-02-04T08:02:14.469Z,22.9
2019-02-04T08:03:16.619Z,22.8
2019-02-04T08:04:19.056Z,22.8
2019-02-04T08:05:21.588Z,22.8
2019-02-04T08:06:23.746Z,22.8
2019-02-04T08:07:25.622Z,22.8
2019-02-04T08:08:27.896Z,22.9
2019-02-04T08:09:30.317Z,22.8
2019-02-04T08:10:33.469Z,22.8
2019-02-04T08:11:36.862Z,22.9
2019-02-04T08:12:39.136Z,22.8
2019-02-04T08:13:41.018Z,22.8
2019-02-04T08:15:48.468Z,22.8
2019-02-04T08:16:50.626Z,22.8
2019-02-04T08:17:53.043Z,22.8
2019-02-04T08:18:55.188Z,22.8
2019-02-04T08:19:57.614Z,22.8
2019-02-04T08:20:59.755Z,22.8
2019-02-04T08:22:02.834Z,22.8
2019-02-04T08:23:05.950Z,22.8
2019-02-04T08:24:08.376Z,22.8
2019-02-04T08:25:10.801Z,22.8
2019-02-04T08:26:13.864Z,22.8
2019-02-04T08:27:16.002Z,22.8
2019-02-04T08:28:18.437Z,22.8
2019-02-04T08:29:20.597Z,22.8
2019-02-04T08:30:22.476Z,22.8
2019-02-04T08:31:24.626Z,22.8
2019-02-04T08:32:27.177Z,22.8
2019-02-04T08:33:29.934Z,22.8
2019-02-04T08:34:33.215Z,22.8
2019-02-04T08:35:35.651Z,22.8
2019-02-04T08:37:43.064Z,22.8
2019-02-04T08:38:45.206Z,22.8
2019-02-04T08:39:47.383Z,22.8
2019-02-04T08:40:49.257Z,22.8
2019-02-04T08:41:51.401Z,22.8
2019-02-04T08:42:53.827Z,22.8
2019-02-04T08:43:56.233Z,22.8
2019-02-04T08:44:58.904Z,22.8
2019-02-04T08:46:02.208Z,22.8
2019-02-04T08:47:04.633Z,22.8
2019-02-04T08:48:06.813Z,22.8
2019-02-04T08:49:08.725Z,22.8
2019-02-04T08:50:11.166Z,22.8
2019-02-04T08:51:13.053Z,22.8
2019-02-04T08:52:15.476Z,22.8
2019-02-04T08:53:17.731Z,22.8
2019-02-04T08:54:19.892Z,22.8
2019-02-04T08:55:22.623Z,22.8
2019-02-04T08:56:25.819Z,22.8
2019-02-04T08:57:28.067Z,22.8
2019-02-04T08:58:29.955Z,22.8
2019-02-04T08:59:32.126Z,22.8
2019-02-04T09:00:34.307Z,22.8
2019-02-04T09:01:36.726Z,22.8
2019-02-04T09:02:39.151Z,22.8
2019-02-04T09:03:41.313Z,22.8
2019-02-04T09:04:43.745Z,22.8
2019-02-04T09:05:46.900Z,22.8
2019-02-04T09:06:50.033Z,22.8
2019-02-04T09:07:52.191Z,22.8
2019-02-04T09:08:54.664Z,22.8
2019-02-04T09:09:56.807Z,22.8
2019-02-04T09:10:58.971Z,22.8
2019-02-04T09:12:01.443Z,22.8
2019-02-04T09:13:03.721Z,22.8
2019-02-04T09:14:06.156Z,22.8
2019-02-04T09:15:08.579Z,22.8
2019-02-04T09:16:11.186Z,22.8
2019-02-04T09:17:13.738Z,22.8
2019-02-04T09:18:15.334Z,22.8
2019-02-04T09:19:17.753Z,22.8
2019-02-04T09:20:20.188Z,22.8
2019-02-04T09:21:22.349Z,22.8
2019-02-04T09:22:24.780Z,22.8
2019-02-04T09:23:27.213Z,22.8
2019-02-04T09:24:29.646Z,22.8
2019-02-04T09:25:32.067Z,22.8
2019-02-04T09:26:34.745Z,22.8
2019-02-04T09:27:37.641Z,22.8
2019-02-04T09:28:40.325Z,22.8
2019-02-04T09:29:42.494Z,22.8
2019-02-04T09:30:44.397Z,22.8
2019-02-04T09:31:46.551Z,22.8
2019-02-04T09:32:48.709Z,22.8
2019-02-04T09:33:51.144Z,22.8
2019-02-04T09:34:53.574Z,22.8
2019-02-04T09:35:55.745Z,22.8
2019-02-04T09:36:58.289Z,22.8
2019-02-04T09:38:01.428Z,22.8
2019-02-04T09:39:04.504Z,22.8
2019-02-04T09:40:06.662Z,22.8
2019-02-04T09:41:08.283Z,22.8
2019-02-04T09:42:10.193Z,22.8
2019-02-04T09:43:12.346Z,22.8
2019-02-04T09:44:14.507Z,22.8
2019-02-04T09:45:16.932Z,22.8
2019-02-04T09:46:19.083Z,22.8
2019-02-04T09:47:20.669Z,22.8
2019-02-04T09:48:23.691Z,22.8
2019-02-04T09:49:26.419Z,22.8
2019-02-04T09:50:28.885Z,22.8
2019-02-04T09:51:35.293Z,22.8
2019-02-04T09:52:37.725Z,22.8
2019-02-04T09:53:39.890Z,22.8
2019-02-04T09:54:42.337Z,22.8
2019-02-04T09:55:44.259Z,22.8
2019-02-04T09:56:46.439Z,22.9
2019-02-04T09:57:48.904Z,22.9
2019-02-04T09:58:51.351Z,22.9
2019-02-04T09:59:54.751Z,22.9
2019-02-04T10:00:57.906Z,22.9
2019-02-04T10:02:01.218Z,22.9
2019-02-04T10:03:03.644Z,22.9
2019-02-04T10:04:06.082Z,22.9
2019-02-04T10:05:08.516Z,22.9
2019-02-04T10:06:10.946Z,22.9
2019-02-04T10:07:13.369Z,22.9
2019-02-04T10:08:15.796Z,22.9
2019-02-04T10:09:18.238Z,22.9
2019-02-04T10:10:20.663Z,22.9
2019-02-04T10:11:23.113Z,22.9
2019-02-04T10:12:25.730Z,22.9
2019-02-04T10:13:28.566Z,22.9
2019-02-04T10:14:30.703Z,22.9
2019-02-04T10:15:33.238Z,22.9
2019-02-04T10:16:35.723Z,22.9
2019-02-04T10:17:37.986Z,22.9
2019-02-04T10:18:40.207Z,22.9
2019-02-04T10:19:42.698Z,22.9
2019-02-04T10:20:44.668Z,22.9
2019-02-04T10:21:47.358Z,22.9
2019-02-04T10:22:49.988Z,22.9
2019-02-04T10:23:53.129Z,22.9
2019-02-04T10:24:56.204Z,22.9
2019-02-04T10:25:58.638Z,22.9
2019-02-04T10:27:01.170Z,22.9
2019-02-04T10:28:03.457Z,22.9
2019-02-04T10:29:05.956Z,22.9
2019-02-04T10:30:08.427Z,22.9
2019-02-04T10:31:10.697Z,22.9
2019-02-04T10:32:13.191Z,22.9
2019-02-04T10:33:15.713Z,22.9
2019-02-04T10:34:17.989Z,22.9
2019-02-04T10:35:20.931Z,22.9
2019-02-04T10:36:24.184Z,22.9
2019-02-04T10:37:26.710Z,22.9
2019-02-04T10:38:29.297Z,22.9
2019-02-04T10:39:31.850Z,22.9
2019-02-04T10:40:34.485Z,22.9
2019-02-04T10:41:37.129Z,22.9
2019-02-04T10:42:39.589Z,22.9
2019-02-04T10:43:42.099Z,22.9
2019-02-04T10:44:44.770Z,22.9
2019-02-04T10:45:47.311Z,22.9
2019-02-04T10:46:50.281Z,22.9
2019-02-04T10:47:53.452Z,22.9
2019-02-04T10:48:56.840Z,22.9
2019-02-04T10:49:59.155Z,22.9
2019-02-04T10:51:01.483Z,22.9
2019-02-04T10:52:03.380Z,22.9
2019-02-04T10:53:05.278Z,22.9
2019-02-04T10:54:07.836Z,22.8
2019-02-04T10:55:10.133Z,22.8
2019-02-04T10:56:12.713Z,22.8
2019-02-04T10:57:19.462Z,22.9
2019-02-04T10:58:22.051Z,22.8
2019-02-04T10:59:24.786Z,22.8
2019-02-04T11:00:28.281Z,22.8
2019-02-04T11:01:30.420Z,22.9
2019-02-04T11:02:32.989Z,22.9
2019-02-04T11:03:35.492Z,22.9
2019-02-04T11:04:38.126Z,22.8
2019-02-04T11:05:40.409Z,22.8
2019-02-04T11:06:42.956Z,22.8
2019-02-04T11:07:45.273Z,22.9
2019-02-04T11:08:47.809Z,22.8
2019-02-04T11:09:50.564Z,22.9
2019-02-04T11:10:53.307Z,22.8
2019-02-04T11:11:56.393Z,22.8
2019-02-04T11:12:58.592Z,22.8
2019-02-04T11:14:01.146Z,22.8
2019-02-04T11:15:03.713Z,22.8
2019-02-04T11:16:05.906Z,22.9
2019-02-04T11:17:08.687Z,22.8
2019-02-04T11:18:11.237Z,22.9
2019-02-04T11:19:13.448Z,22.9
2019-02-04T11:20:15.953Z,22.8
2019-02-04T11:21:18.583Z,22.9
2019-02-04T11:22:21.754Z,22.8
2019-02-04T11:23:24.987Z,22.8
2019-02-04T11:24:31.980Z,22.8
2019-02-04T11:25:34.537Z,22.8
2019-02-04T11:26:37.030Z,22.8
2019-02-04T11:27:39.524Z,22.8
2019-02-04T11:28:41.966Z,22.8
2019-02-04T11:29:44.574Z,22.8
2019-02-04T11:30:46.551Z,22.9
2019-02-04T11:31:49.049Z,22.8
2019-02-04T11:32:51.463Z,22.8
2019-02-04T11:33:54.116Z,22.9
2019-02-04T11:34:57.174Z,22.8
2019-02-04T11:36:00.508Z,22.9
2019-02-04T11:37:03.050Z,22.9
2019-02-04T11:38:05.535Z,22.9
2019-02-04T11:39:07.988Z,22.9
2019-02-04T11:40:10.655Z,22.9
2019-02-04T11:41:13.029Z,22.9
2019-02-04T11:42:15.222Z,22.8
2019-02-04T11:43:17.602Z,22.9
2019-02-04T11:44:20.181Z,22.9
2019-02-04T11:45:23.034Z,22.9
2019-02-04T11:46:26.246Z,22.9
2019-02-04T11:47:29.312Z,22.9
2019-02-04T11:48:32.029Z,22.9
2019-02-04T11:49:34.487Z,22.8
2019-02-04T11:50:36.356Z,22.9
2019-02-04T11:51:38.798Z,22.9
2019-02-04T11:52:40.678Z,22.9
2019-02-04T11:53:43.104Z,22.9
2019-02-04T11:54:45.527Z,22.9
2019-02-04T11:55:47.942Z,22.9
2019-02-04T11:56:50.373Z,22.9
2019-02-04T11:57:53.094Z,22.9
2019-02-04T11:58:56.040Z,22.9
2019-02-04T11:59:58.204Z,22.9
2019-02-04T12:01:00.641Z,22.9
2019-02-04T12:02:02.889Z,22.9
2019-02-04T12:03:05.314Z,22.9
2019-02-04T12:04:07.474Z,22.8
2019-02-04T12:05:09.976Z,22.9
2019-02-04T12:06:12.121Z,22.8
2019-02-04T12:07:14.553Z,22.9
2019-02-04T12:08:16.926Z,22.9
2019-02-04T12:09:19.674Z,22.9
2019-02-04T12:10:22.433Z,22.9
2019-02-04T12:11:24.575Z,22.8
2019-02-04T12:12:26.455Z,22.9
2019-02-04T12:13:28.884Z,22.9
2019-02-04T12:14:31.302Z,22.8
2019-02-04T12:15:33.733Z,22.8
2019-02-04T12:16:35.897Z,22.9
2019-02-04T12:17:38.356Z,22.9
2019-02-04T12:18:40.788Z,22.8
2019-02-04T12:19:43.466Z,22.9
2019-02-04T12:20:46.503Z,22.8
2019-02-04T12:21:48.657Z,22.8
2019-02-04T12:22:51.082Z,22.8
2019-02-04T12:23:53.515Z,22.8
2019-02-04T12:24:55.685Z,22.8
2019-02-04T12:25:58.114Z,22.8
2019-02-04T12:27:00.283Z,22.8
2019-02-04T12:28:02.412Z,22.8
2019-02-04T12:29:04.842Z,22.8
2019-02-04T12:30:07.276Z,22.8
2019-02-04T12:31:10.288Z,22.9
2019-02-04T12:32:13.334Z,22.8
2019-02-04T12:33:15.523Z,22.8
2019-02-04T12:34:17.675Z,22.9
2019-02-04T12:35:20.118Z,22.8
2019-02-04T12:36:22.667Z,22.9
2019-02-04T12:37:25.243Z,22.9
2019-02-04T12:38:27.673Z,22.9
2019-02-04T12:39:29.824Z,22.8
2019-02-04T12:40:32.252Z,22.8
2019-02-04T12:41:35.050Z,22.8
2019-02-04T12:42:37.867Z,22.8
2019-02-04T12:43:41.225Z,22.8
2019-02-04T12:44:43.654Z,22.9
2019-02-04T12:45:45.547Z,22.8
2019-02-04T12:46:47.975Z,22.8
2019-02-04T12:47:49.852Z,22.9
2019-02-04T12:48:52.025Z,22.8
2019-02-04T12:49:54.472Z,22.8
2019-02-04T12:50:56.898Z,22.8
2019-02-04T12:51:59.057Z,22.8
2019-02-04T12:53:02.102Z,22.8
2019-02-04T12:54:05.300Z,22.8
2019-02-04T12:55:07.985Z,22.8
2019-02-04T12:56:10.412Z,22.8
2019-02-04T12:57:12.844Z,22.8
2019-02-04T12:58:15.276Z,22.9
2019-02-04T12:59:17.716Z,22.8
2019-02-04T13:00:20.152Z,22.8
2019-02-04T13:01:22.304Z,22.8
2019-02-04T13:02:24.173Z,22.8
2019-02-04T13:03:26.624Z,22.8
2019-02-04T13:04:29.720Z,22.8
2019-02-04T13:05:32.747Z,22.8
2019-02-04T13:06:35.363Z,22.8
2019-02-04T13:07:37.539Z,22.8
2019-02-04T13:08:39.964Z,22.8
2019-02-04T13:09:42.405Z,22.8
2019-02-04T13:10:44.303Z,22.8
2019-02-04T13:11:46.524Z,22.8
2019-02-04T13:12:48.967Z,22.8
2019-02-04T13:13:51.243Z,22.9
2019-02-04T13:14:53.685Z,22.8
2019-02-04T13:15:56.695Z,22.8
2019-02-04T13:16:59.842Z,22.9
2019-02-04T13:18:02.298Z,22.8
2019-02-04T13:19:04.165Z,22.8
2019-02-04T13:20:06.594Z,22.8
2019-02-04T13:21:09.077Z,22.8
2019-02-04T13:22:11.507Z,22.8
2019-02-04T13:23:13.930Z,22.8
2019-02-04T13:24:16.373Z,22.8
2019-02-04T13:25:18.804Z,22.8
2019-02-04T13:26:21.239Z,22.8
2019-02-04T13:27:24.015Z,22.8
2019-02-04T13:28:27.198Z,22.8
2019-02-04T13:29:29.629Z,22.8
2019-02-04T13:30:31.822Z,22.8
2019-02-04T13:31:34.053Z,22.8
2019-02-04T13:32:36.239Z,22.8
2019-02-04T13:33:38.661Z,22.8
2019-02-04T13:34:41.105Z,22.8
2019-02-04T13:35:43.541Z,22.8
2019-02-04T13:36:45.715Z,22.8
2019-02-04T13:37:48.139Z,22.8
2019-02-04T13:38:51.099Z,22.8
2019-02-04T13:39:54.369Z,22.8
2019-02-04T13:42:01.796Z,22.8
2019-02-04T13:43:03.680Z,22.8
2019-02-04T13:44:05.850Z,22.8
2019-02-04T13:45:08.020Z,22.8
2019-02-04T13:46:09.909Z,22.8
2019-02-04T13:47:12.092Z,22.8
2019-02-04T13:48:14.235Z,22.8
2019-02-04T13:49:16.403Z,22.8
2019-02-04T13:50:19.462Z,22.8
2019-02-04T13:51:22.414Z,22.8
2019-02-04T13:52:24.276Z,22.8
2019-02-04T13:53:28.117Z,22.8
2019-02-04T13:54:30.292Z,22.8
2019-02-04T13:55:32.453Z,22.8
2019-02-04T13:56:34.603Z,22.8
2019-02-04T13:57:37.035Z,22.8
2019-02-04T13:58:38.893Z,22.8
2019-02-04T13:59:41.471Z,22.8
2019-02-04T14:00:43.903Z,22.8
2019-02-04T14:01:46.989Z,22.8
2019-02-04T14:03:55.115Z,22.8
2019-02-04T14:04:57.258Z,22.8
2019-02-04T14:05:59.686Z,22.8
2019-02-04T14:07:01.860Z,22.8
2019-02-04T14:08:04.282Z,22.8
2019-02-04T14:09:06.737Z,22.8